Terminal Aerodrome Forecast
Issued by NWS Bismarck, ND

Home | Current Version | Previous Version | Text Only | Print | Product List | Glossary Off
Versions: 1 2 3 4 5 6 7 8 9 10 11 12 13 14 15

377
FTUS43 KBIS 201126
TAFBIS
TAF
KBIS 201126Z 2012/2112 23011KT P6SM SKC
     FM201600 22013G21KT P6SM FEW060 FEW200
     FM210000 19011KT P6SM FEW110 FEW250
     FM210600 16010KT P6SM FEW140 SCT200 WS020/20040KT
     FM210900 15009KT P6SM BKN130 BKN140=

USA.gov is the U.S. government's official web portal to all federal, state and local government web resources and services.